Time;durP1;ratioP1;P1;durP2;ratioP2;P2;SDS_P1;SDS_P2;PMS_P1;PMS_P2;Temp;Humidity;BMP_temperature;BMP_pressure;BME280_temperature;BME280_humidity;BME280_pressure;Samples;Min_cycle;Max_cycle;Signal;HPM_P1;HPM_P2
2021/08/01 00:01:50;;;;;;;4.10;3.50;;;19.80;69.30;;;;;;4931610;29;20460;-47
2021/08/01 00:04:17;;;;;;;3.30;2.83;;;19.80;69.50;;;;;;4933552;29;20456;-47
2021/08/01 00:06:43;;;;;;;3.27;2.73;;;19.80;69.60;;;;;;4928871;29;20824;-47
2021/08/01 00:09:10;;;;;;;8.00;3.23;;;19.80;69.40;;;;;;4935974;29;20463;-47
2021/08/01 00:11:37;;;;;;;3.90;2.73;;;19.80;69.30;;;;;;4915957;29;20463;-47
2021/08/01 00:14:04;;;;;;;8.37;3.10;;;19.80;69.20;;;;;;4930846;29;20473;-47
2021/08/01 00:16:31;;;;;;;3.47;3.10;;;19.80;68.90;;;;;;4933211;29;20499;-47
2021/08/01 00:19:00;;;;;;;4.27;2.43;;;19.80;68.70;;;;;;4930623;29;20816;-47
2021/08/01 00:21:27;;;;;;;3.20;2.90;;;19.70;68.60;;;;;;4931734;29;20460;-47
2021/08/01 00:23:53;;;;;;;2.73;2.30;;;19.70;68.50;;;;;;4931887;29;20444;-47
2021/08/01 00:26:20;;;;;;;6.90;2.63;;;19.80;68.30;;;;;;4902670;29;20963;-47
2021/08/01 00:28:47;;;;;;;4.93;3.20;;;19.70;68.20;;;;;;4933391;29;20472;-47
2021/08/01 00:31:14;;;;;;;3.80;2.47;;;19.70;68.10;;;;;;4928495;29;20618;-47
2021/08/01 00:33:41;;;;;;;2.90;2.70;;;19.70;68.20;;;;;;4933615;29;20925;-47
2021/08/01 00:36:07;;;;;;;4.40;3.00;;;19.70;68.10;;;;;;4911783;29;21104;-47
2021/08/01 00:38:34;;;;;;;3.87;2.17;;;19.70;68.00;;;;;;4932797;29;20452;-47
2021/08/01 00:41:02;;;;;;;3.33;2.60;;;19.70;68.20;;;;;;4927601;29;20454;-47
2021/08/01 00:43:30;;;;;;;3.50;2.43;;;19.70;68.60;;;;;;4918457;29;20458;-47
2021/08/01 00:45:57;;;;;;;2.67;2.10;;;19.70;68.60;;;;;;4933462;29;20529;-47
2021/08/01 00:48:26;;;;;;;3.13;2.30;;;19.60;68.30;;;;;;4933435;28;20454;-47
2021/08/01 00:50:53;;;;;;;2.80;2.60;;;19.60;68.60;;;;;;4932272;29;21109;-47
2021/08/01 00:53:20;;;;;;;2.80;2.40;;;19.60;68.80;;;;;;4899882;29;20453;-47
2021/08/01 00:55:47;;;;;;;3.27;2.10;;;19.60;69.20;;;;;;4927759;29;20453;-47
2021/08/01 00:58:14;;;;;;;3.40;2.70;;;19.60;69.20;;;;;;4932318;29;20813;-47
2021/08/01 01:04:00;;;;;;;6.03;2.87;;;19.50;69.20;;;;;;4932115;29;20444;-47
2021/08/01 01:06:37;;;;;;;6.13;2.90;;;19.50;69.50;;;;;;4927484;29;20455;-47
2021/08/01 01:09:11;;;;;;;3.60;2.70;;;19.50;69.60;;;;;;4931505;29;20526;-47
2021/08/01 01:11:42;;;;;;;3.50;2.60;;;19.50;69.60;;;;;;4916329;29;20449;-47
2021/08/01 01:14:14;;;;;;;3.10;2.53;;;19.50;69.80;;;;;;4913315;29;20606;-47
2021/08/01 01:16:45;;;;;;;2.87;2.67;;;19.50;69.70;;;;;;4929309;29;20488;-47
2021/08/01 01:19:26;;;;;;;2.50;2.30;;;19.50;69.60;;;;;;4930899;29;20556;-47
2021/08/01 01:22:17;;;;;;;3.10;2.77;;;19.50;69.80;;;;;;4930758;29;20448;-47
2021/08/01 01:24:46;;;;;;;2.80;2.60;;;19.50;69.70;;;;;;4930769;29;20458;-47
2021/08/01 01:27:15;;;;;;;2.90;2.70;;;19.50;69.40;;;;;;4930033;29;20454;-47
2021/08/01 01:29:51;;;;;;;3.37;3.07;;;19.50;69.40;;;;;;4930639;29;20479;-47
2021/08/01 01:32:25;;;;;;;3.40;2.70;;;19.50;69.40;;;;;;4916341;29;20473;-47
2021/08/01 01:35:04;;;;;;;4.50;2.40;;;19.50;69.10;;;;;;4931846;29;20452;-47
2021/08/01 01:37:33;;;;;;;4.27;2.40;;;19.50;69.10;;;;;;4937821;29;20487;-47
2021/08/01 01:40:01;;;;;;;3.10;2.47;;;19.50;69.10;;;;;;4936289;29;20488;-47
2021/08/01 01:42:30;;;;;;;2.60;2.23;;;19.50;69.10;;;;;;4936265;29;20969;-47
2021/08/01 01:45:00;;;;;;;3.27;2.80;;;19.50;69.20;;;;;;4934396;29;20444;-47
2021/08/01 01:47:27;;;;;;;2.77;2.37;;;19.50;69.10;;;;;;4935316;29;20484;-47
2021/08/01 01:49:57;;;;;;;2.93;2.37;;;19.40;69.10;;;;;;4935653;29;20470;-47
2021/08/01 01:52:26;;;;;;;3.43;2.67;;;19.40;69.20;;;;;;4935696;29;20455;-47
2021/08/01 01:54:53;;;;;;;2.57;2.27;;;19.50;69.00;;;;;;4938309;29;20451;-47
2021/08/01 01:57:21;;;;;;;2.90;2.60;;;19.50;68.60;;;;;;4936823;29;20495;-47
2021/08/01 01:59:47;;;;;;;2.77;2.47;;;19.50;68.20;;;;;;4930158;29;20491;-47
2021/08/01 02:02:14;;;;;;;3.33;2.60;;;19.40;68.10;;;;;;4919596;29;20444;-47
2021/08/01 02:04:41;;;;;;;2.53;2.10;;;19.40;68.00;;;;;;4931500;29;20451;-47
2021/08/01 02:07:10;;;;;;;3.70;2.60;;;19.40;68.00;;;;;;4935235;29;20823;-47
2021/08/01 02:09:36;;;;;;;3.20;2.37;;;19.40;67.70;;;;;;4931810;29;20495;-47
2021/08/01 02:12:03;;;;;;;3.03;2.20;;;19.40;67.70;;;;;;4934190;29;20452;-47
2021/08/01 02:14:56;;;;;;;14.03;3.13;;;19.40;68.20;;;;;;4934835;29;20820;-47
2021/08/01 02:17:30;;;;;;;18.37;3.10;;;19.40;68.40;;;;;;4935334;29;20582;-47
2021/08/01 02:20:00;;;;;;;3.47;2.50;;;19.30;68.90;;;;;;4918167;29;20802;-47
2021/08/01 02:22:28;;;;;;;5.47;2.87;;;19.30;69.30;;;;;;4934988;29;20813;-47
2021/08/01 02:24:56;;;;;;;2.57;2.37;;;19.30;69.20;;;;;;4930831;29;20495;-47
2021/08/01 02:27:27;;;;;;;2.50;1.93;;;19.30;69.50;;;;;;4932102;29;20464;-47
2021/08/01 02:29:54;;;;;;;3.77;2.73;;;19.30;69.60;;;;;;4934085;29;20447;-47
2021/08/01 02:32:22;;;;;;;2.90;2.50;;;19.30;69.70;;;;;;4935344;29;20719;-47
2021/08/01 02:34:49;;;;;;;4.57;2.30;;;19.20;69.70;;;;;;4932077;29;20474;-47
2021/08/01 02:37:17;;;;;;;4.60;2.20;;;19.20;69.60;;;;;;4931965;29;20566;-49
2021/08/01 02:39:44;;;;;;;3.90;2.40;;;19.20;69.80;;;;;;4933149;29;20455;-48
2021/08/01 02:42:13;;;;;;;2.50;2.30;;;19.20;69.90;;;;;;4937458;29;21164;-48
2021/08/01 02:44:42;;;;;;;3.17;2.60;;;19.20;70.10;;;;;;4935140;29;20512;-48
2021/08/01 02:47:10;;;;;;;4.30;2.57;;;19.10;70.20;;;;;;4931742;29;20445;-48
2021/08/01 02:49:41;;;;;;;2.83;2.63;;;19.10;70.10;;;;;;4914521;29;20999;-48
2021/08/01 02:52:14;;;;;;;2.53;2.30;;;19.10;70.30;;;;;;4934452;29;20443;-48
2021/08/01 02:54:43;;;;;;;3.63;2.30;;;19.10;70.10;;;;;;4930574;29;20456;-48
2021/08/01 02:57:12;;;;;;;2.93;2.70;;;19.10;70.10;;;;;;4933435;29;20584;-48
2021/08/01 02:59:41;;;;;;;3.93;3.00;;;19.10;69.90;;;;;;4931541;29;20448;-49
2021/08/01 03:02:10;;;;;;;4.50;2.30;;;19.10;70.00;;;;;;4934736;29;20440;-49
2021/08/01 03:04:39;;;;;;;2.50;2.20;;;19.10;69.90;;;;;;4934664;29;20447;-49
2021/08/01 03:07:07;;;;;;;2.40;2.20;;;19.10;69.70;;;;;;4933164;29;20512;-49
2021/08/01 03:09:34;;;;;;;2.90;2.63;;;19.00;69.70;;;;;;4932565;29;20452;-49
2021/08/01 03:12:09;;;;;;;3.43;2.67;;;19.00;69.90;;;;;;4933714;29;20451;-49
2021/08/01 03:14:35;;;;;;;3.40;2.80;;;19.00;70.20;;;;;;4932737;29;20546;-49
2021/08/01 03:17:02;;;;;;;2.80;2.40;;;19.00;70.50;;;;;;4929671;29;21065;-49
2021/08/01 03:19:29;;;;;;;2.60;2.40;;;19.00;70.40;;;;;;4928568;29;20445;-49
2021/08/01 03:21:56;;;;;;;2.77;2.30;;;19.00;70.60;;;;;;4930834;29;20452;-49
2021/08/01 03:24:23;;;;;;;2.63;2.37;;;19.00;70.50;;;;;;4932067;29;20801;-49
2021/08/01 03:26:50;;;;;;;2.77;2.27;;;18.90;70.40;;;;;;4932294;29;20447;-49
2021/08/01 03:29:17;;;;;;;2.50;2.30;;;18.90;70.30;;;;;;4917099;29;20931;-49
2021/08/01 03:31:43;;;;;;;2.77;2.57;;;18.90;70.40;;;;;;4920635;29;20444;-49
2021/08/01 03:34:10;;;;;;;3.60;2.43;;;18.90;70.50;;;;;;4934108;29;20503;-49
2021/08/01 03:36:37;;;;;;;2.70;2.50;;;18.90;70.60;;;;;;4936075;29;20450;-49
2021/08/01 03:39:04;;;;;;;2.80;2.20;;;18.80;70.50;;;;;;4934009;29;20454;-49
2021/08/01 03:41:31;;;;;;;2.00;1.90;;;18.80;70.40;;;;;;4920312;29;20455;-49
2021/08/01 03:43:58;;;;;;;3.97;2.90;;;18.80;70.70;;;;;;4933210;29;20814;-49
2021/08/01 03:46:25;;;;;;;2.67;2.40;;;18.80;71.00;;;;;;4919640;29;20467;-49
2021/08/01 03:48:51;;;;;;;3.20;2.63;;;18.80;70.90;;;;;;4934875;29;20479;-49
2021/08/01 03:51:18;;;;;;;3.50;2.20;;;18.80;70.80;;;;;;4918301;29;20449;-49
2021/08/01 03:53:45;;;;;;;3.60;2.50;;;18.80;70.70;;;;;;4931086;29;20448;-49
2021/08/01 03:56:12;;;;;;;2.93;1.97;;;18.70;71.00;;;;;;4932121;29;20452;-49
2021/08/01 03:58:39;;;;;;;2.30;2.10;;;18.70;71.20;;;;;;4930022;29;20825;-49
2021/08/01 04:01:05;;;;;;;3.00;2.20;;;18.70;70.90;;;;;;4932839;29;20864;-49
2021/08/01 04:03:32;;;;;;;2.23;2.00;;;18.70;71.00;;;;;;4932980;29;20452;-49
2021/08/01 04:05:59;;;;;;;4.17;2.63;;;18.70;71.40;;;;;;4929687;29;20484;-49
2021/08/01 04:08:25;;;;;;;2.93;2.60;;;18.60;71.40;;;;;;4930502;29;20463;-49
2021/08/01 04:10:52;;;;;;;4.33;2.40;;;18.60;71.70;;;;;;4928918;29;20796;-49
2021/08/01 04:13:19;;;;;;;4.70;3.53;;;18.60;71.90;;;;;;4932134;29;21027;-49
2021/08/01 04:15:49;;;;;;;5.93;2.70;;;18.60;72.00;;;;;;4930160;29;20463;-49
2021/08/01 04:18:16;;;;;;;3.97;2.33;;;18.60;72.10;;;;;;4929710;29;20992;-49
2021/08/01 04:20:42;;;;;;;3.07;2.80;;;18.60;72.20;;;;;;4931363;29;20996;-49
2021/08/01 04:23:09;;;;;;;3.03;2.53;;;18.60;72.10;;;;;;4931446;29;20456;-49
2021/08/01 04:25:36;;;;;;;2.47;2.27;;;18.60;71.90;;;;;;4932217;29;20826;-49
2021/08/01 04:28:03;;;;;;;4.80;3.13;;;18.50;71.90;;;;;;4932720;29;20548;-49
2021/08/01 04:30:33;;;;;;;2.83;2.40;;;18.50;72.20;;;;;;4928783;29;20451;-49
2021/08/01 04:32:59;;;;;;;3.07;2.57;;;18.50;72.40;;;;;;4928311;29;20451;-49
2021/08/01 04:35:26;;;;;;;3.67;3.03;;;18.50;72.60;;;;;;4930633;29;20470;-49
2021/08/01 04:37:53;;;;;;;4.00;2.50;;;18.50;72.80;;;;;;4917805;29;20528;-49
2021/08/01 04:40:20;;;;;;;4.83;2.77;;;18.50;72.90;;;;;;4930773;29;20445;-49
2021/08/01 04:42:47;;;;;;;3.53;2.30;;;18.40;73.00;;;;;;4931941;29;20456;-49
2021/08/01 04:45:13;;;;;;;3.60;2.70;;;18.50;73.10;;;;;;4931553;29;20499;-49
2021/08/01 04:47:40;;;;;;;2.67;2.43;;;18.50;72.90;;;;;;4930562;29;20452;-49
2021/08/01 04:50:08;;;;;;;4.70;2.43;;;18.50;72.70;;;;;;4933056;29;20456;-49
2021/08/01 04:52:35;;;;;;;5.03;2.97;;;18.50;72.80;;;;;;4930240;29;20517;-49
2021/08/01 04:55:02;;;;;;;5.30;2.80;;;18.50;72.80;;;;;;4930614;29;20456;-49
2021/08/01 04:57:29;;;;;;;2.67;2.40;;;18.50;72.90;;;;;;4930525;29;20842;-49
2021/08/01 04:59:56;;;;;;;3.00;2.60;;;18.50;73.10;;;;;;4922679;29;20480;-49
2021/08/01 05:02:22;;;;;;;3.20;2.50;;;18.60;73.10;;;;;;4926734;29;20440;-49
2021/08/01 05:04:49;;;;;;;3.10;2.20;;;18.60;73.10;;;;;;4930676;29;20455;-49
2021/08/01 05:07:16;;;;;;;4.30;2.33;;;18.60;73.20;;;;;;4912172;29;20819;-49
2021/08/01 05:09:43;;;;;;;3.43;2.90;;;18.60;73.20;;;;;;4929902;29;20452;-49
2021/08/01 05:12:10;;;;;;;5.60;2.40;;;18.60;73.00;;;;;;4934535;29;20448;-49
2021/08/01 05:14:36;;;;;;;5.90;3.17;;;18.60;73.00;;;;;;4933336;29;20535;-49
2021/08/01 05:17:04;;;;;;;3.30;2.70;;;18.60;72.90;;;;;;4934379;29;20532;-49
2021/08/01 05:19:31;;;;;;;3.80;2.53;;;18.60;73.00;;;;;;4936062;29;20452;-49
2021/08/01 05:21:58;;;;;;;2.50;2.23;;;18.60;72.90;;;;;;4934337;29;20471;-49
2021/08/01 05:24:24;;;;;;;5.93;2.67;;;18.60;72.70;;;;;;4934607;29;20467;-49
2021/08/01 05:26:51;;;;;;;2.83;2.20;;;18.60;72.60;;;;;;4932323;29;20444;-49
2021/08/01 05:29:18;;;;;;;3.73;2.20;;;18.60;72.70;;;;;;4931379;29;20546;-49
2021/08/01 05:31:44;;;;;;;4.13;2.97;;;18.60;72.70;;;;;;4934360;29;20455;-49
2021/08/01 05:34:11;;;;;;;3.60;2.40;;;18.70;72.70;;;;;;4932500;29;20824;-49
2021/08/01 05:36:39;;;;;;;4.43;2.40;;;18.70;72.70;;;;;;4934576;29;20523;-49
2021/08/01 05:39:06;;;;;;;2.40;2.20;;;18.70;72.90;;;;;;4935532;29;20595;-49
2021/08/01 05:41:33;;;;;;;5.13;2.70;;;18.80;72.80;;;;;;4936510;29;20452;-49
2021/08/01 05:44:00;;;;;;;3.53;2.20;;;18.80;72.80;;;;;;4938609;29;20455;-49
2021/08/01 05:46:26;;;;;;;3.87;2.47;;;18.80;73.00;;;;;;4919481;29;20539;-49
2021/08/01 05:48:53;;;;;;;3.83;2.53;;;18.80;72.90;;;;;;4932338;29;20921;-49
2021/08/01 05:51:20;;;;;;;2.70;2.00;;;18.90;72.60;;;;;;4918168;29;20523;-49
2021/08/01 05:53:47;;;;;;;3.10;2.60;;;18.90;72.30;;;;;;4936734;29;20929;-49
2021/08/01 05:56:13;;;;;;;2.50;2.30;;;18.90;72.20;;;;;;4915632;29;20535;-49
2021/08/01 05:58:41;;;;;;;4.13;2.67;;;18.90;72.20;;;;;;4936588;29;20497;-49
2021/08/01 06:01:13;;;;;;;2.83;2.60;;;18.90;72.30;;;;;;4932087;29;20471;-49
2021/08/01 06:03:41;;;;;;;5.83;3.37;;;19.00;72.50;;;;;;4934746;29;20891;-49
2021/08/01 06:06:19;;;;;;;6.23;2.40;;;19.00;72.60;;;;;;4936475;29;20544;-49
2021/08/01 06:08:48;;;;;;;4.67;2.70;;;19.00;72.70;;;;;;4932317;29;20459;-50
2021/08/01 06:11:15;;;;;;;2.93;2.57;;;19.00;72.60;;;;;;4931284;29;20539;-50
2021/08/01 06:13:42;;;;;;;2.63;2.40;;;19.00;72.60;;;;;;4933543;29;20967;-50
2021/08/01 06:16:11;;;;;;;5.87;2.40;;;19.00;72.80;;;;;;4915201;29;20532;-50
2021/08/01 06:18:41;;;;;;;4.60;2.73;;;19.10;72.70;;;;;;4917506;29;20558;-50
2021/08/01 06:21:13;;;;;;;3.40;2.70;;;19.10;72.60;;;;;;4932916;29;20439;-50
2021/08/01 06:23:42;;;;;;;2.53;2.20;;;19.10;72.70;;;;;;4906159;29;20456;-50
2021/08/01 06:26:10;;;;;;;4.13;3.10;;;19.20;72.40;;;;;;4931714;29;20524;-50
2021/08/01 06:28:37;;;;;;;3.10;2.23;;;19.20;72.40;;;;;;4934220;29;20452;-50
2021/08/01 06:31:06;;;;;;;3.27;2.40;;;19.20;72.50;;;;;;4933519;29;20478;-49
2021/08/01 06:33:34;;;;;;;3.73;3.00;;;19.20;72.50;;;;;;4931980;29;20511;-50
2021/08/01 06:36:08;;;;;;;3.17;2.60;;;19.30;72.50;;;;;;4933406;29;20452;-50
2021/08/01 06:38:36;;;;;;;2.17;2.07;;;19.30;72.30;;;;;;4920196;29;20574;-50
2021/08/01 06:41:04;;;;;;;3.07;2.77;;;19.30;72.50;;;;;;4934150;29;20838;-50
2021/08/01 06:43:31;;;;;;;2.67;2.50;;;19.30;72.40;;;;;;4933402;29;20451;-50
2021/08/01 06:45:58;;;;;;;2.67;2.47;;;19.30;71.90;;;;;;4913898;29;20444;-50
2021/08/01 06:48:25;;;;;;;4.07;2.70;;;19.40;71.50;;;;;;4918960;29;20961;-50
2021/08/01 06:50:53;;;;;;;2.20;2.00;;;19.40;71.50;;;;;;4930623;29;21155;-50
2021/08/01 06:53:20;;;;;;;4.57;2.60;;;19.40;71.40;;;;;;4931322;29;20459;-50
2021/08/01 06:55:47;;;;;;;4.10;2.33;;;19.50;71.10;;;;;;4934202;29;20462;-50
2021/08/01 06:58:18;;;;;;;2.97;2.67;;;19.50;71.30;;;;;;4930729;29;20574;-50
2021/08/01 07:00:48;;;;;;;2.30;2.10;;;19.50;71.60;;;;;;4918830;29;20476;-50
2021/08/01 07:03:16;;;;;;;3.10;2.33;;;19.60;71.50;;;;;;4917884;29;20451;-50
2021/08/01 07:05:43;;;;;;;2.40;2.20;;;19.60;71.10;;;;;;4933145;29;20440;-50
2021/08/01 07:08:10;;;;;;;2.50;2.30;;;19.70;70.90;;;;;;4932119;29;20634;-50
2021/08/01 07:10:38;;;;;;;3.30;2.87;;;19.70;70.80;;;;;;4933787;29;20452;-50
2021/08/01 07:13:06;;;;;;;2.57;2.37;;;19.70;70.70;;;;;;4933912;29;20463;-50
2021/08/01 07:15:34;;;;;;;3.83;2.33;;;19.80;70.60;;;;;;4931077;29;20516;-50
2021/08/01 07:18:02;;;;;;;2.63;2.43;;;19.80;70.60;;;;;;4928349;29;20503;-50
2021/08/01 07:20:29;;;;;;;2.80;2.17;;;19.90;70.20;;;;;;4913232;29;20443;-50
2021/08/01 07:22:57;;;;;;;4.33;2.00;;;19.90;70.10;;;;;;4931685;29;20456;-49
2021/08/01 07:25:24;;;;;;;3.00;2.40;;;19.90;69.80;;;;;;4933868;29;20941;-50
2021/08/01 07:27:52;;;;;;;2.87;2.37;;;20.00;69.60;;;;;;4914111;29;20597;-50
2021/08/01 07:30:20;;;;;;;2.57;2.37;;;20.10;69.10;;;;;;4908664;29;20451;-50
2021/08/01 07:32:47;;;;;;;2.77;2.57;;;20.10;69.10;;;;;;4931509;29;20460;-50
2021/08/01 07:35:13;;;;;;;2.90;2.40;;;20.20;68.90;;;;;;4931443;29;20936;-50
2021/08/01 07:37:40;;;;;;;2.60;2.40;;;20.20;68.80;;;;;;4934360;29;20476;-50
2021/08/01 07:40:08;;;;;;;3.10;2.80;;;20.20;69.00;;;;;;4935158;29;20809;-50
2021/08/01 07:42:34;;;;;;;3.07;2.37;;;20.20;69.10;;;;;;4934164;29;20538;-50
2021/08/01 07:45:04;;;;;;;2.53;2.30;;;20.30;68.90;;;;;;4928812;29;20494;-50
2021/08/01 07:47:34;;;;;;;2.90;2.60;;;20.30;68.70;;;;;;4933002;29;20937;-50
2021/08/01 07:50:03;;;;;;;3.03;2.00;;;20.40;68.40;;;;;;4931463;29;20446;-50
2021/08/01 07:52:30;;;;;;;2.63;2.00;;;20.50;67.70;;;;;;4934272;29;20985;-50
2021/08/01 07:54:58;;;;;;;3.07;2.40;;;20.50;67.70;;;;;;4931850;29;20503;-50
2021/08/01 07:57:29;;;;;;;2.83;2.63;;;20.60;67.60;;;;;;4931369;29;20455;-50
2021/08/01 08:00:00;;;;;;;3.63;2.40;;;20.70;67.80;;;;;;4930149;29;20950;-50
2021/08/01 08:02:27;;;;;;;4.23;2.00;;;20.90;67.10;;;;;;4932627;29;21001;-50
2021/08/01 08:04:54;;;;;;;2.33;2.00;;;21.00;66.40;;;;;;4933078;29;20487;-50
2021/08/01 08:07:21;;;;;;;2.73;2.03;;;21.10;66.10;;;;;;4932244;29;20452;-50
2021/08/01 08:09:49;;;;;;;3.83;2.50;;;21.20;66.10;;;;;;4932253;29;20460;-50
2021/08/01 08:12:17;;;;;;;2.00;1.80;;;21.30;65.80;;;;;;4932541;29;20457;-50
2021/08/01 08:14:44;;;;;;;3.60;2.20;;;21.30;65.40;;;;;;4934003;29;20463;-50
2021/08/01 08:17:11;;;;;;;2.57;2.27;;;21.30;65.10;;;;;;4934677;29;20452;-50
2021/08/01 08:19:41;;;;;;;2.40;2.03;;;21.40;65.20;;;;;;4931838;29;20848;-50
2021/08/01 08:22:10;;;;;;;2.90;1.83;;;21.50;64.80;;;;;;4928526;29;20449;-50
2021/08/01 08:24:37;;;;;;;2.77;2.57;;;21.60;64.30;;;;;;4933301;29;20868;-50
2021/08/01 08:27:05;;;;;;;2.20;2.00;;;21.70;64.20;;;;;;4931568;29;20455;-50
2021/08/01 08:29:33;;;;;;;4.30;2.50;;;21.80;64.60;;;;;;4932209;29;20480;-50
2021/08/01 08:31:59;;;;;;;1.73;1.63;;;21.90;63.50;;;;;;4930676;29;20455;-50
2021/08/01 08:34:26;;;;;;;1.90;1.70;;;21.90;62.60;;;;;;4928934;29;20455;-50
2021/08/01 08:37:00;;;;;;;2.40;1.67;;;21.90;62.90;;;;;;4932803;29;20563;-50
2021/08/01 08:39:28;;;;;;;2.07;1.67;;;21.90;63.00;;;;;;4930633;29;20523;-50
2021/08/01 08:42:00;;;;;;;2.03;1.83;;;21.90;62.70;;;;;;4935097;29;20450;-50
2021/08/01 08:44:27;;;;;;;2.40;2.27;;;21.90;62.90;;;;;;4914354;29;20452;-50
2021/08/01 08:46:55;;;;;;;5.60;2.03;;;21.90;62.70;;;;;;4929529;29;20452;-50
2021/08/01 08:49:23;;;;;;;2.50;2.30;;;21.90;62.70;;;;;;4929064;29;20519;-50
2021/08/01 08:51:53;;;;;;;1.93;1.80;;;21.90;62.80;;;;;;4904730;29;20454;-50
2021/08/01 08:54:26;;;;;;;3.17;1.93;;;21.90;62.80;;;;;;4933954;29;20466;-50
2021/08/01 08:56:56;;;;;;;2.20;1.90;;;21.90;62.80;;;;;;4929803;29;20456;-50
2021/08/01 08:59:25;;;;;;;3.00;2.10;;;21.90;63.80;;;;;;4931815;29;20579;-50
2021/08/01 09:01:52;;;;;;;2.03;1.83;;;21.80;63.40;;;;;;4931605;29;20541;-50
2021/08/01 09:04:21;;;;;;;2.90;2.00;;;21.80;63.40;;;;;;4927678;29;20456;-50
2021/08/01 09:06:49;;;;;;;1.70;1.60;;;21.90;63.20;;;;;;4927688;29;20462;-50
2021/08/01 09:09:16;;;;;;;3.03;1.80;;;21.90;63.00;;;;;;4931467;29;20483;-50
2021/08/01 09:11:44;;;;;;;1.73;1.50;;;21.90;63.00;;;;;;4929264;29;20451;-50
2021/08/01 09:14:19;;;;;;;3.93;2.07;;;22.00;62.70;;;;;;4932757;29;20451;-50
2021/08/01 09:16:49;;;;;;;2.47;2.27;;;22.00;62.40;;;;;;4928584;29;20555;-50
2021/08/01 09:19:26;;;;;;;1.47;1.37;;;22.10;61.80;;;;;;4931771;29;20562;-50
2021/08/01 09:21:54;;;;;;;2.00;1.90;;;22.10;61.70;;;;;;4929418;29;20486;-50
2021/08/01 09:24:31;;;;;;;1.33;1.23;;;22.30;61.90;;;;;;4931970;29;20464;-50
2021/08/01 09:26:58;;;;;;;2.30;1.53;;;22.50;60.90;;;;;;4925614;29;20439;-50
2021/08/01 09:29:25;;;;;;;3.10;2.00;;;22.70;60.30;;;;;;4930274;29;20458;-50
2021/08/01 09:31:59;;;;;;;3.83;2.30;;;22.90;60.20;;;;;;4931532;29;20522;-50
2021/08/01 09:34:28;;;;;;;1.70;1.60;;;23.10;59.90;;;;;;4929985;29;20803;-50
2021/08/01 09:36:56;;;;;;;2.73;2.23;;;23.40;59.30;;;;;;4930483;29;20475;-50
2021/08/01 09:39:23;;;;;;;2.00;1.80;;;23.50;58.80;;;;;;4930056;29;20484;-50
2021/08/01 09:41:58;;;;;;;2.20;2.00;;;23.70;58.40;;;;;;4930901;29;20798;-50
2021/08/01 09:44:25;;;;;;;2.40;1.87;;;23.90;57.80;;;;;;4931226;29;20546;-50
2021/08/01 09:46:55;;;;;;;2.83;2.10;;;23.90;58.10;;;;;;4931980;29;20443;-50
2021/08/01 09:49:24;;;;;;;4.10;2.70;;;23.80;57.60;;;;;;4912861;29;20495;-50
2021/08/01 09:51:53;;;;;;;1.93;1.83;;;23.90;56.90;;;;;;4932003;29;20447;-50
2021/08/01 09:54:21;;;;;;;2.17;2.07;;;24.20;56.40;;;;;;4929480;29;20460;-50
2021/08/01 09:57:03;;;;;;;1.97;1.87;;;24.50;55.00;;;;;;4928847;29;20455;-50
2021/08/01 09:59:32;;;;;;;2.30;2.00;;;24.70;55.20;;;;;;4934241;29;20577;-50
2021/08/01 10:02:00;;;;;;;5.37;1.80;;;25.20;54.90;;;;;;4932432;29;20464;-50
2021/08/01 10:04:29;;;;;;;2.70;1.90;;;25.50;53.80;;;;;;4935187;29;20539;-50
2021/08/01 10:07:08;;;;;;;2.97;2.30;;;25.90;52.70;;;;;;4916084;29;20444;-50
2021/08/01 10:09:36;;;;;;;2.20;2.00;;;26.30;51.10;;;;;;4931071;29;20451;-50
2021/08/01 10:12:07;;;;;;;2.03;1.70;;;26.80;49.40;;;;;;4936562;29;20526;-50
2021/08/01 10:14:35;;;;;;;3.13;2.20;;;26.80;49.00;;;;;;4933470;29;20451;-51
2021/08/01 10:17:05;;;;;;;1.60;1.50;;;26.70;49.40;;;;;;4936357;29;20474;-51
2021/08/01 10:19:33;;;;;;;2.83;2.10;;;26.50;49.80;;;;;;4930643;29;20494;-50
2021/08/01 10:22:03;;;;;;;3.80;2.10;;;26.50;50.00;;;;;;4934949;29;20841;-50
2021/08/01 10:24:44;;;;;;;4.27;1.70;;;26.70;50.00;;;;;;4915602;29;20459;-50
2021/08/01 10:27:14;;;;;;;2.27;2.07;;;27.00;49.20;;;;;;4936465;29;20782;-50
2021/08/01 10:29:57;;;;;;;2.40;2.20;;;27.20;48.10;;;;;;4916914;29;20796;-50
2021/08/01 10:32:30;;;;;;;2.27;1.80;;;27.20;47.30;;;;;;4903111;29;20396;-50
2021/08/01 10:35:07;;;;;;;2.70;2.00;;;27.20;48.00;;;;;;4921653;29;21135;-50
2021/08/01 10:37:42;;;;;;;2.80;2.60;;;27.30;48.30;;;;;;4918293;29;20490;-50
2021/08/01 10:40:11;;;;;;;2.60;1.90;;;27.50;47.90;;;;;;4934637;29;20849;-50
2021/08/01 10:42:42;;;;;;;3.70;2.07;;;27.70;47.00;;;;;;4934108;29;20447;-50
2021/08/01 10:45:10;;;;;;;4.07;1.77;;;27.80;47.00;;;;;;4919945;29;20212;-50
2021/08/01 10:47:43;;;;;;;2.90;1.90;;;27.80;47.20;;;;;;4932714;29;20204;-50
2021/08/01 10:50:16;;;;;;;2.73;1.97;;;27.60;47.40;;;;;;4935888;29;20215;-50
2021/08/01 10:52:43;;;;;;;3.00;2.00;;;27.30;48.10;;;;;;4933473;29;20454;-50
2021/08/01 10:55:21;;;;;;;2.33;1.90;;;27.10;48.30;;;;;;4933865;29;20247;-50
2021/08/01 10:58:11;;;;;;;3.90;2.20;;;27.00;48.80;;;;;;4933399;29;20460;-50
2021/08/01 11:00:56;;;;;;;2.43;2.23;;;26.60;49.00;;;;;;4933683;29;20495;-50
2021/08/01 11:03:23;;;;;;;4.73;2.47;;;26.20;51.00;;;;;;4933882;29;20488;-50
2021/08/01 11:05:50;;;;;;;3.40;3.10;;;25.80;52.70;;;;;;4935182;29;20447;-50
2021/08/01 11:08:18;;;;;;;5.10;2.90;;;25.50;54.00;;;;;;4929278;29;20975;-50
2021/08/01 11:10:45;;;;;;;5.07;3.00;;;25.10;57.70;;;;;;4935162;29;20543;-50
2021/08/01 11:13:29;;;;;;;5.27;2.60;;;24.80;58.00;;;;;;4934536;29;20529;-50
2021/08/01 11:15:56;;;;;;;4.67;2.97;;;24.50;58.40;;;;;;4934793;29;20451;-50
2021/08/01 11:18:31;;;;;;;4.37;2.80;;;24.30;59.00;;;;;;4933305;29;20443;-50
2021/08/01 11:21:05;;;;;;;2.87;2.50;;;24.20;59.80;;;;;;4933887;29;20534;-50
2021/08/01 11:23:47;;;;;;;4.03;2.50;;;24.20;59.00;;;;;;4932186;29;20483;-50
2021/08/01 11:26:18;;;;;;;3.80;2.90;;;24.20;58.90;;;;;;4934245;29;20454;-50
2021/08/01 11:29:04;;;;;;;2.80;2.30;;;24.10;56.10;;;;;;4933679;29;20462;-50
2021/08/01 11:31:31;;;;;;;3.73;2.60;;;24.00;56.80;;;;;;4915064;29;20451;-50
2021/08/01 11:34:16;;;;;;;2.80;1.97;;;23.90;56.60;;;;;;4934061;29;20444;-50
2021/08/01 11:36:43;;;;;;;3.93;1.80;;;23.90;55.30;;;;;;4917047;29;20443;-50
2021/08/01 11:39:10;;;;;;;2.60;1.97;;;23.90;52.80;;;;;;4917448;29;20487;-50
2021/08/01 11:41:39;;;;;;;3.23;2.03;;;23.90;52.90;;;;;;4934273;29;20447;-50
2021/08/01 11:44:16;;;;;;;5.37;2.50;;;23.90;54.00;;;;;;4937293;29;20443;-50
2021/08/01 11:46:46;;;;;;;2.93;1.97;;;23.90;54.90;;;;;;4933677;29;20503;-49
2021/08/01 11:49:17;;;;;;;2.27;2.07;;;24.00;54.90;;;;;;4936907;29;20538;-50
2021/08/01 11:51:45;;;;;;;5.37;1.93;;;24.10;53.80;;;;;;4934823;29;20455;-50
2021/08/01 11:54:13;;;;;;;5.27;2.20;;;24.20;53.10;;;;;;4935410;29;20448;-50
2021/08/01 11:56:41;;;;;;;2.50;2.00;;;24.30;52.70;;;;;;4932790;29;20459;-50
2021/08/01 11:59:11;;;;;;;2.37;2.00;;;24.30;52.90;;;;;;4912967;29;20479;-50
2021/08/01 12:01:39;;;;;;;3.60;2.30;;;24.20;53.70;;;;;;4911111;29;20466;-50
2021/08/01 12:04:11;;;;;;;3.80;2.20;;;24.20;53.70;;;;;;4931820;29;20455;-50
2021/08/01 12:06:42;;;;;;;3.40;1.90;;;24.10;53.60;;;;;;4930465;29;20452;-50
2021/08/01 12:09:23;;;;;;;2.77;1.90;;;24.00;52.80;;;;;;4933241;29;20973;-51
2021/08/01 12:12:02;;;;;;;1.70;1.60;;;23.90;53.60;;;;;;4932133;29;20453;-50
2021/08/01 12:14:37;;;;;;;2.20;1.87;;;23.90;54.10;;;;;;4927393;29;20473;-50
2021/08/01 12:17:11;;;;;;;1.63;1.53;;;23.90;54.10;;;;;;4931848;29;20501;-50
2021/08/01 12:19:49;;;;;;;2.57;1.50;;;23.90;53.30;;;;;;4928201;29;21067;-50
2021/08/01 12:22:22;;;;;;;1.57;1.43;;;24.00;53.20;;;;;;4932619;29;20465;-50
2021/08/01 12:24:54;;;;;;;1.70;1.30;;;24.10;51.50;;;;;;4928550;29;20836;-50
2021/08/01 12:27:36;;;;;;;1.30;0.93;;;24.20;49.90;;;;;;4930650;29;20470;-50
2021/08/01 12:30:06;;;;;;;2.97;1.53;;;24.30;49.40;;;;;;4928981;29;20451;-50
2021/08/01 12:32:43;;;;;;;5.33;1.60;;;24.30;49.10;;;;;;4926971;29;20477;-49
2021/08/01 12:35:18;;;;;;;3.10;1.70;;;24.20;48.80;;;;;;4930055;29;20447;-49
2021/08/01 12:38:00;;;;;;;2.90;1.50;;;24.10;49.20;;;;;;4927041;29;20471;-49
2021/08/01 12:40:32;;;;;;;3.23;1.17;;;24.20;49.50;;;;;;4926676;29;20491;-49
2021/08/01 12:43:02;;;;;;;2.40;1.20;;;24.20;49.10;;;;;;4910860;29;20475;-49
2021/08/01 12:45:37;;;;;;;2.80;0.90;;;24.10;49.20;;;;;;4908725;29;20476;-49
2021/08/01 12:48:06;;;;;;;1.90;1.00;;;24.10;48.90;;;;;;4926159;29;20464;-49
2021/08/01 12:50:34;;;;;;;1.23;1.00;;;24.10;49.30;;;;;;4909571;29;20471;-49
2021/08/01 12:53:02;;;;;;;2.47;1.23;;;24.10;48.50;;;;;;4924022;29;20467;-49
2021/08/01 12:55:29;;;;;;;2.20;1.07;;;24.20;49.50;;;;;;4928204;29;20471;-49
2021/08/01 12:58:02;;;;;;;1.30;1.13;;;24.20;49.40;;;;;;4912576;29;20474;-49
2021/08/01 13:00:29;;;;;;;1.97;1.27;;;24.30;48.60;;;;;;4927214;29;20503;-49
2021/08/01 13:02:58;;;;;;;1.43;0.90;;;24.40;48.80;;;;;;4927817;29;20510;-49